createdAt,value
2023-05-05T00:00:09.501Z,247.73
2023-05-05T00:01:09.388Z,247.30
2023-05-05T00:02:09.372Z,246.02
2023-05-05T00:03:09.455Z,246.17
2023-05-05T00:04:09.409Z,246.80
2023-05-05T00:05:09.773Z,247.84
2023-05-05T00:06:09.420Z,245.95
2023-05-05T00:07:09.434Z,247.74
2023-05-05T00:08:09.355Z,247.03
2023-05-05T00:09:09.376Z,245.78
2023-05-05T00:10:09.575Z,246.97
2023-05-05T00:11:09.406Z,245.80
2023-05-05T00:12:09.410Z,247.09
2023-05-05T00:13:09.489Z,246.66
2023-05-05T00:14:09.412Z,244.85
2023-05-05T00:15:09.405Z,247.33
2023-05-05T00:16:09.428Z,247.82
2023-05-05T00:17:09.443Z,247.67
2023-05-05T00:18:09.444Z,247.22
2023-05-05T00:19:09.421Z,245.90
2023-05-05T00:20:09.540Z,245.71
2023-05-05T00:21:09.432Z,246.50
2023-05-05T00:22:09.373Z,247.43
2023-05-05T00:23:09.427Z,247.16
2023-05-05T00:24:09.374Z,247.64
2023-05-05T00:25:09.389Z,246.36
2023-05-05T00:26:09.410Z,245.51
2023-05-05T00:27:09.397Z,245.39
2023-05-05T00:28:10.294Z,247.63
2023-05-05T00:29:09.420Z,247.22
2023-05-05T00:30:09.628Z,249.22
2023-05-05T00:31:09.425Z,246.87
2023-05-05T00:32:09.398Z,247.13
2023-05-05T00:33:09.335Z,246.24
2023-05-05T00:34:09.421Z,245.63
2023-05-05T00:35:09.359Z,246.19
2023-05-05T00:36:09.375Z,247.45
2023-05-05T00:37:09.367Z,246.38
2023-05-05T00:38:09.391Z,245.76
2023-05-05T00:39:09.352Z,247.43
2023-05-05T00:40:09.555Z,246.47
2023-05-05T00:41:09.350Z,245.96
2023-05-05T00:42:09.380Z,246.82
2023-05-05T00:43:09.394Z,247.08
2023-05-05T00:44:09.389Z,245.81
2023-05-05T00:45:09.799Z,245.96
2023-05-05T00:46:09.446Z,245.83
2023-05-05T00:47:09.337Z,247.78
2023-05-05T00:48:09.392Z,246.22
2023-05-05T00:49:09.384Z,248.53
2023-05-05T00:50:09.529Z,249.33
2023-05-05T00:51:09.378Z,247.86
2023-05-05T00:52:09.389Z,247.78
2023-05-05T00:53:09.331Z,246.26
2023-05-05T00:55:16.311Z,25.00
2023-05-05T00:56:16.465Z,25.00
2023-05-05T00:57:16.732Z,25.00
2023-05-05T00:58:16.887Z,25.00
2023-05-05T00:59:17.047Z,25.00
2023-05-05T01:00:17.202Z,25.00
2023-05-05T01:01:17.601Z,26.48
2023-05-05T01:02:17.493Z,27.43
2023-05-05T01:03:17.797Z,27.23
2023-05-05T01:04:17.921Z,30.28
2023-05-05T01:05:18.054Z,26.42
2023-05-05T01:06:18.187Z,25.09
2023-05-05T01:07:18.157Z,26.45
2023-05-05T01:08:18.247Z,27.64
2023-05-05T01:09:18.285Z,31.15
2023-05-05T01:10:20.702Z,30.50
2023-05-05T01:11:18.570Z,27.24
2023-05-05T01:12:18.634Z,29.85
2023-05-05T01:13:18.698Z,27.01
2023-05-05T01:14:18.743Z,28.01
2023-05-05T01:15:18.802Z,30.93
2023-05-05T01:16:18.902Z,29.21
2023-05-05T01:17:18.937Z,27.53
2023-05-05T01:18:18.960Z,30.97
2023-05-05T01:19:19.042Z,30.75
2023-05-05T01:20:19.089Z,29.84
2023-05-05T01:21:19.145Z,27.78
2023-05-05T01:22:19.210Z,25.12
2023-05-05T01:23:19.478Z,28.19
2023-05-05T01:24:19.311Z,29.59
2023-05-05T01:25:19.345Z,27.41
2023-05-05T01:26:19.407Z,30.36
2023-05-05T01:27:19.514Z,29.39
2023-05-05T01:28:19.421Z,31.69
2023-05-05T01:29:19.460Z,30.29
2023-05-05T01:30:19.468Z,31.72
2023-05-05T01:31:19.681Z,32.18
2023-05-05T01:32:19.790Z,30.49
2023-05-05T01:33:19.663Z,30.84
2023-05-05T01:34:19.650Z,28.71
2023-05-05T01:35:19.698Z,28.18
2023-05-05T01:36:19.776Z,29.22
2023-05-05T01:37:19.797Z,32.91
2023-05-05T01:38:19.834Z,33.19
2023-05-05T01:39:19.918Z,30.59
2023-05-05T01:40:19.920Z,30.15
2023-05-05T01:41:20.005Z,29.45
2023-05-05T01:42:20.101Z,34.89
2023-05-05T01:43:20.102Z,33.90
2023-05-05T01:44:20.125Z,30.36
2023-05-05T01:45:20.101Z,29.49
2023-05-05T01:46:20.271Z,33.57
2023-05-05T01:47:20.142Z,29.35
2023-05-05T01:48:20.211Z,32.80
2023-05-05T01:49:20.206Z,31.16
2023-05-05T01:50:20.264Z,29.06
2023-05-05T01:51:20.282Z,33.69
2023-05-05T01:52:20.328Z,33.73
2023-05-05T01:53:20.341Z,32.94
2023-05-05T01:54:20.401Z,31.21
2023-05-05T01:55:20.616Z,29.25
2023-05-05T01:56:20.416Z,29.04
2023-05-05T01:57:20.407Z,32.19
2023-05-05T01:58:20.417Z,32.36
2023-05-05T01:59:20.428Z,28.62
2023-05-05T02:00:20.437Z,32.54
2023-05-05T02:01:20.516Z,30.69
2023-05-05T02:02:20.537Z,31.37
2023-05-05T02:03:20.623Z,26.87
2023-05-05T02:04:20.530Z,33.08
2023-05-05T02:05:20.521Z,30.61
2023-05-05T02:06:20.536Z,33.11
2023-05-05T02:07:20.581Z,33.59
2023-05-05T02:08:20.548Z,34.39
2023-05-05T02:09:20.601Z,33.60
2023-05-05T02:10:21.071Z,38.01
2023-05-05T02:11:20.616Z,31.38
2023-05-05T02:12:20.577Z,31.65
2023-05-05T02:13:20.802Z,33.15
2023-05-05T02:14:20.632Z,33.99
2023-05-05T02:15:20.668Z,32.74
2023-05-05T02:16:20.735Z,33.55
2023-05-05T02:17:20.720Z,35.27
2023-05-05T02:18:20.717Z,31.27
2023-05-05T02:19:20.701Z,32.62
2023-05-05T02:20:20.720Z,31.92
2023-05-05T02:21:20.800Z,34.39
2023-05-05T02:22:20.740Z,34.12
2023-05-05T02:23:20.759Z,33.09
2023-05-05T02:24:20.746Z,32.41
2023-05-05T02:25:20.749Z,33.59
2023-05-05T02:26:20.781Z,33.89
2023-05-05T02:27:20.827Z,34.42
2023-05-05T02:28:20.842Z,35.66
2023-05-05T02:29:20.846Z,32.70
2023-05-05T02:30:20.813Z,36.23
2023-05-05T02:31:21.233Z,35.17
2023-05-05T02:32:21.090Z,36.37
2023-05-05T02:33:20.884Z,35.75
2023-05-05T02:34:20.867Z,35.89
2023-05-05T02:35:20.843Z,33.30
2023-05-05T02:36:20.866Z,34.54
2023-05-05T02:37:20.887Z,31.90
2023-05-05T02:38:20.839Z,34.22
2023-05-05T02:39:20.860Z,36.99
2023-05-05T02:40:20.850Z,36.47
2023-05-05T02:41:20.867Z,32.11
2023-05-05T02:42:20.863Z,32.51
2023-05-05T02:43:20.939Z,34.40
2023-05-05T02:44:20.841Z,36.27
2023-05-05T02:45:20.862Z,32.04
2023-05-05T02:46:20.888Z,31.79
2023-05-05T02:47:20.814Z,34.04
2023-05-05T02:48:20.896Z,34.03
2023-05-05T02:49:20.873Z,34.99
2023-05-05T02:50:20.898Z,37.03
2023-05-05T02:51:20.887Z,35.94
2023-05-05T02:52:20.853Z,36.98
2023-05-05T02:53:20.914Z,34.72
2023-05-05T02:54:20.848Z,35.66
2023-05-05T02:55:20.855Z,34.65
2023-05-05T02:56:20.875Z,35.97
2023-05-05T02:57:20.886Z,33.92
2023-05-05T02:58:20.868Z,36.61
2023-05-05T02:59:20.982Z,36.56
2023-05-05T03:00:20.904Z,38.72
2023-05-05T03:01:20.909Z,35.62
2023-05-05T03:02:20.931Z,36.21
2023-05-05T03:03:21.077Z,36.78
2023-05-05T03:04:20.925Z,36.08
2023-05-05T03:05:20.933Z,37.96
2023-05-05T03:06:20.941Z,35.80
2023-05-05T03:07:20.954Z,36.59
2023-05-05T03:08:20.960Z,35.86
2023-05-05T03:09:20.942Z,38.35
2023-05-05T03:10:20.968Z,34.95
2023-05-05T03:11:20.961Z,38.40
2023-05-05T03:12:20.971Z,37.10
2023-05-05T03:13:21.001Z,38.63
2023-05-05T03:14:20.980Z,33.94
2023-05-05T03:15:20.987Z,37.22
2023-05-05T03:16:21.032Z,39.26
2023-05-05T03:17:21.034Z,37.50
2023-05-05T03:18:21.021Z,39.84
2023-05-05T03:19:21.039Z,37.25
2023-05-05T03:20:21.038Z,35.93
2023-05-05T03:21:21.029Z,38.00
2023-05-05T03:22:21.035Z,37.94
2023-05-05T03:23:21.208Z,36.82
2023-05-05T03:24:21.049Z,36.34
2023-05-05T03:25:21.126Z,36.15
2023-05-05T03:26:21.674Z,40.05
2023-05-05T03:27:21.070Z,39.51
2023-05-05T03:28:21.076Z,39.15
2023-05-05T03:29:21.081Z,40.09
2023-05-05T03:30:21.095Z,39.37
2023-05-05T03:31:21.174Z,35.61
2023-05-05T03:32:21.107Z,38.30
2023-05-05T03:33:21.637Z,40.39
2023-05-05T03:34:21.183Z,36.56
2023-05-05T03:35:21.235Z,36.48
2023-05-05T03:36:21.199Z,36.98
2023-05-05T03:37:21.157Z,40.19
2023-05-05T03:38:21.208Z,38.43
2023-05-05T03:39:21.230Z,38.20
2023-05-05T03:40:29.689Z,38.70
2023-05-05T03:41:22.247Z,38.85
2023-05-05T03:42:21.259Z,38.86
2023-05-05T03:43:21.198Z,39.66
2023-05-05T03:44:21.175Z,39.83
2023-05-05T03:45:21.199Z,39.26
2023-05-05T03:46:21.223Z,36.59
2023-05-05T03:47:21.172Z,38.13
2023-05-05T03:48:21.172Z,38.50
2023-05-05T03:49:21.189Z,40.61
2023-05-05T03:50:21.187Z,39.29
2023-05-05T03:51:21.148Z,42.34
2023-05-05T03:52:21.148Z,41.18
2023-05-05T03:53:21.207Z,37.28
2023-05-05T03:54:21.139Z,40.65
2023-05-05T03:55:21.236Z,38.67
2023-05-05T03:56:21.086Z,39.79
2023-05-05T03:57:21.143Z,41.10
2023-05-05T03:58:21.086Z,41.02
2023-05-05T03:59:21.111Z,41.61
2023-05-05T04:00:21.177Z,41.11
2023-05-05T04:01:21.170Z,41.24
2023-05-05T04:02:21.342Z,36.45
2023-05-05T04:03:21.278Z,40.16
2023-05-05T04:04:21.246Z,39.49
2023-05-05T04:05:21.194Z,39.07
2023-05-05T04:06:21.301Z,44.53
2023-05-05T04:07:21.312Z,42.19
2023-05-05T04:08:21.325Z,41.78
2023-05-05T04:09:21.341Z,40.43
2023-05-05T04:10:21.393Z,39.04
2023-05-05T04:11:21.410Z,35.90
2023-05-05T04:12:21.382Z,35.28
2023-05-05T04:13:21.457Z,36.28
2023-05-05T04:14:21.479Z,33.99
2023-05-05T04:15:21.508Z,35.43
2023-05-05T04:16:21.529Z,32.17
2023-05-05T04:17:21.489Z,34.32
2023-05-05T04:18:21.494Z,34.45
2023-05-05T04:19:21.546Z,31.22
2023-05-05T04:20:21.657Z,31.82
2023-05-05T04:21:21.555Z,31.49
2023-05-05T04:22:21.557Z,31.54
2023-05-05T04:23:21.567Z,32.66
2023-05-05T04:24:21.645Z,28.45
2023-05-05T04:25:21.575Z,29.14
2023-05-05T04:26:21.586Z,29.60
2023-05-05T04:27:21.666Z,31.59
2023-05-05T04:28:22.014Z,34.01
2023-05-05T04:29:21.671Z,33.63
2023-05-05T04:30:21.773Z,37.28
2023-05-05T04:31:21.872Z,37.22
2023-05-05T04:32:21.924Z,38.06
2023-05-05T04:33:21.898Z,39.24
2023-05-05T04:34:21.938Z,39.52
2023-05-05T04:35:21.968Z,38.94
2023-05-05T04:36:22.009Z,37.72
2023-05-05T04:37:22.038Z,37.83
2023-05-05T04:38:22.100Z,36.87
2023-05-05T04:39:21.980Z,35.53
2023-05-05T04:40:21.982Z,36.66
2023-05-05T04:41:21.992Z,35.46
2023-05-05T04:42:22.093Z,35.16
2023-05-05T04:43:22.011Z,36.29
2023-05-05T04:44:22.135Z,33.67
2023-05-05T04:45:22.028Z,33.66
2023-05-05T04:46:22.069Z,30.65
2023-05-05T04:47:22.046Z,33.23
2023-05-05T04:48:22.052Z,35.92
2023-05-05T04:49:22.113Z,38.60
2023-05-05T04:50:22.117Z,40.45
2023-05-05T04:51:22.161Z,41.97
2023-05-05T04:52:22.226Z,43.81
2023-05-05T04:53:22.303Z,44.97
2023-05-05T04:54:22.257Z,45.47
2023-05-05T04:55:22.262Z,42.67
2023-05-05T04:56:22.255Z,42.06
2023-05-05T04:57:22.262Z,39.52
2023-05-05T04:58:22.285Z,37.89
2023-05-05T04:59:22.349Z,40.86
2023-05-05T05:00:22.276Z,36.62
2023-05-05T05:01:22.360Z,40.81
2023-05-05T05:02:22.395Z,41.82
2023-05-05T05:03:22.730Z,35.95
2023-05-05T05:04:22.269Z,37.32
2023-05-05T05:05:22.302Z,35.86
2023-05-05T05:06:22.335Z,35.75
2023-05-05T05:07:22.449Z,34.79
2023-05-05T05:08:22.342Z,34.36
2023-05-05T05:09:23.186Z,31.09
2023-05-05T05:10:22.326Z,31.68
2023-05-05T05:11:22.377Z,34.75
2023-05-05T05:12:22.477Z,31.81
2023-05-05T05:13:23.241Z,31.34
2023-05-05T05:14:22.337Z,29.99
2023-05-05T05:15:22.396Z,30.51
2023-05-05T05:16:22.415Z,34.34
2023-05-05T05:17:22.434Z,30.93
2023-05-05T05:18:22.412Z,31.17
2023-05-05T05:19:22.419Z,31.61
2023-05-05T05:20:22.422Z,30.56
2023-05-05T05:21:22.434Z,32.62
2023-05-05T05:22:22.432Z,30.76
2023-05-05T05:23:22.484Z,33.26
2023-05-05T05:24:22.499Z,30.67
2023-05-05T05:25:22.505Z,31.02
2023-05-05T05:26:22.520Z,28.58
2023-05-05T05:27:22.500Z,29.51
2023-05-05T05:28:22.689Z,29.75
2023-05-05T05:29:22.534Z,27.30
2023-05-05T05:30:22.596Z,29.78
2023-05-05T05:31:22.642Z,30.58
2023-05-05T05:32:22.638Z,24.50
2023-05-05T05:33:22.651Z,25.81
2023-05-05T05:34:22.681Z,25.45
2023-05-05T05:35:22.731Z,29.04
2023-05-05T05:36:22.685Z,27.76
2023-05-05T05:37:22.689Z,27.23
2023-05-05T05:38:22.695Z,25.00
2023-05-05T05:39:22.771Z,26.65
2023-05-05T05:40:22.773Z,29.19
2023-05-05T05:41:22.823Z,29.25
2023-05-05T05:42:22.919Z,26.88
2023-05-05T05:43:22.827Z,43.02
2023-05-05T05:44:23.342Z,33.89
2023-05-05T05:45:22.917Z,29.97
2023-05-05T05:46:23.050Z,31.09
2023-05-05T05:47:22.992Z,37.45
2023-05-05T05:48:23.058Z,44.85
2023-05-05T05:49:23.289Z,52.11
2023-05-05T05:50:23.041Z,60.71
2023-05-05T05:51:23.161Z,62.26
2023-05-05T05:52:23.184Z,68.11
2023-05-05T05:53:23.103Z,67.82
2023-05-05T05:54:23.176Z,78.08
2023-05-05T05:55:23.732Z,82.78
2023-05-05T05:56:23.186Z,79.70
2023-05-05T05:57:23.702Z,87.27
2023-05-05T05:58:23.405Z,93.85
2023-05-05T05:59:23.239Z,115.44
2023-05-05T06:00:23.265Z,120.42
2023-05-05T06:01:23.342Z,117.49
2023-05-05T06:02:23.345Z,117.67
2023-05-05T06:03:23.385Z,111.94
2023-05-05T06:04:23.601Z,105.02
2023-05-05T06:05:23.246Z,106.54
2023-05-05T06:06:23.289Z,103.16
2023-05-05T06:07:23.257Z,108.00
2023-05-05T06:08:25.130Z,100.92
2023-05-05T06:09:23.284Z,102.02
2023-05-05T06:10:28.012Z,100.78
2023-05-05T06:11:23.284Z,100.94
2023-05-05T06:12:24.217Z,101.50
2023-05-05T06:13:23.716Z,103.51
2023-05-05T06:14:23.348Z,104.52
2023-05-05T06:15:24.280Z,110.59
2023-05-05T06:16:24.270Z,112.31
2023-05-05T06:17:23.343Z,103.91
2023-05-05T06:18:23.311Z,113.46
2023-05-05T06:19:24.190Z,128.30
2023-05-05T06:20:23.193Z,111.47
2023-05-05T06:21:23.686Z,97.49
2023-05-05T06:22:23.204Z,96.61
2023-05-05T06:23:23.159Z,98.18
2023-05-05T06:24:23.776Z,92.90
2023-05-05T06:25:23.176Z,94.50
2023-05-05T06:26:23.116Z,94.08
2023-05-05T06:27:23.119Z,88.42
2023-05-05T06:28:23.184Z,83.00
2023-05-05T06:29:23.142Z,77.98
2023-05-05T06:30:23.218Z,83.35
2023-05-05T06:31:23.127Z,92.62
2023-05-05T06:32:23.234Z,97.63
2023-05-05T06:33:23.177Z,95.44
2023-05-05T06:34:23.249Z,90.92
2023-05-05T06:35:23.155Z,94.51
2023-05-05T06:36:23.245Z,95.55
2023-05-05T06:37:23.207Z,71.76
2023-05-05T06:38:23.202Z,76.77
2023-05-05T06:39:23.306Z,72.42
2023-05-05T06:40:23.711Z,64.97
2023-05-05T06:41:23.387Z,54.48
2023-05-05T06:42:23.396Z,54.54
2023-05-05T06:43:23.527Z,55.61
2023-05-05T06:44:23.525Z,62.51
2023-05-05T06:45:23.534Z,62.93
2023-05-05T06:46:23.651Z,66.84
2023-05-05T06:47:23.755Z,74.41
2023-05-05T06:48:23.556Z,77.08
2023-05-05T06:49:23.667Z,80.50
2023-05-05T06:50:23.760Z,84.31
2023-05-05T06:51:23.712Z,85.18
2023-05-05T06:52:24.251Z,86.59
2023-05-05T06:53:24.218Z,94.19
2023-05-05T06:54:23.809Z,95.40
2023-05-05T06:55:24.714Z,91.83
2023-05-05T06:56:24.244Z,97.92
2023-05-05T06:57:24.093Z,103.39
2023-05-05T06:58:24.117Z,94.94
2023-05-05T06:59:24.130Z,106.15
2023-05-05T07:00:24.173Z,103.19
2023-05-05T07:01:24.323Z,97.29
2023-05-05T07:02:26.703Z,98.76
2023-05-05T07:03:24.681Z,98.04
2023-05-05T07:04:24.701Z,99.33
2023-05-05T07:05:24.757Z,96.61
2023-05-05T07:06:24.971Z,100.72
2023-05-05T07:07:24.828Z,105.19
2023-05-05T07:08:25.292Z,108.23
2023-05-05T07:09:25.040Z,107.64
2023-05-05T07:10:25.038Z,110.11
2023-05-05T07:11:25.769Z,109.75
2023-05-05T07:12:25.759Z,111.29
2023-05-05T07:13:25.228Z,114.49
2023-05-05T07:14:25.268Z,108.73
2023-05-05T07:15:29.318Z,109.85
2023-05-05T07:16:25.281Z,110.04
2023-05-05T07:17:25.700Z,110.62
2023-05-05T07:18:26.382Z,109.47
2023-05-05T07:19:25.292Z,104.09
2023-05-05T07:20:25.389Z,99.14
2023-05-05T07:21:25.239Z,109.91
2023-05-05T07:22:25.332Z,100.98
2023-05-05T07:23:25.237Z,99.73
2023-05-05T07:24:25.245Z,96.69
2023-05-05T07:25:25.231Z,96.45
2023-05-05T07:26:25.252Z,97.52
2023-05-05T07:27:25.226Z,100.74
2023-05-05T07:28:25.487Z,101.45
2023-05-05T07:29:25.194Z,97.09
2023-05-05T07:30:25.193Z,103.46
2023-05-05T07:31:25.365Z,111.45
2023-05-05T07:32:26.296Z,106.60
2023-05-05T07:33:25.471Z,110.89
2023-05-05T07:34:25.409Z,94.29
2023-05-05T07:35:26.322Z,84.59
2023-05-05T07:36:25.509Z,47.49
2023-05-05T07:37:26.278Z,25.45
2023-05-05T07:38:25.739Z,25.00
2023-05-05T07:39:25.851Z,36.10
2023-05-05T07:40:26.298Z,28.00
2023-05-05T07:41:25.778Z,32.81
2023-05-05T07:42:25.874Z,35.37
2023-05-05T07:43:25.683Z,44.96
2023-05-05T07:44:26.290Z,50.35
2023-05-05T07:45:25.759Z,55.05
2023-05-05T07:46:25.780Z,51.08
2023-05-05T07:47:26.783Z,56.22
2023-05-05T07:48:25.873Z,59.81
2023-05-05T07:49:25.991Z,65.44
2023-05-05T07:50:26.378Z,62.40
2023-05-05T07:51:26.104Z,73.24
2023-05-05T07:52:43.526Z,68.90
2023-05-05T07:53:27.109Z,69.27
2023-05-05T07:54:26.121Z,69.98
2023-05-05T07:55:26.091Z,72.18
2023-05-05T07:56:26.083Z,78.00
2023-05-05T07:57:26.178Z,79.54
2023-05-05T07:58:26.038Z,81.01
2023-05-05T07:59:26.276Z,87.96
2023-05-05T08:00:26.254Z,83.21
2023-05-05T08:01:26.017Z,79.70
2023-05-05T08:02:26.128Z,80.78
2023-05-05T08:03:26.275Z,80.13
2023-05-05T08:04:26.124Z,89.51
2023-05-05T08:05:26.195Z,96.17
2023-05-05T08:06:26.371Z,93.37
2023-05-05T08:07:26.366Z,90.92
2023-05-05T08:08:26.362Z,85.92
2023-05-05T08:09:27.301Z,87.04
2023-05-05T08:10:26.494Z,78.09
2023-05-05T08:11:27.851Z,68.96
2023-05-05T08:12:26.657Z,74.40
2023-05-05T08:13:26.453Z,84.93
2023-05-05T08:14:26.535Z,88.15
2023-05-05T08:15:26.473Z,92.22
2023-05-05T08:16:26.519Z,96.61
2023-05-05T08:17:26.521Z,95.13
2023-05-05T08:18:26.449Z,97.59
2023-05-05T08:19:29.355Z,102.66
2023-05-05T08:20:27.021Z,102.78
2023-05-05T08:21:26.406Z,102.96
2023-05-05T08:22:26.422Z,101.86
2023-05-05T08:23:26.446Z,99.34
2023-05-05T08:24:27.252Z,104.69
2023-05-05T08:25:26.442Z,108.63
2023-05-05T08:26:26.387Z,101.71
2023-05-05T08:27:26.483Z,48.19
2023-05-05T08:28:26.432Z,24.33
2023-05-05T08:29:27.232Z,14.61
2023-05-05T08:30:26.396Z,16.61
2023-05-05T08:31:26.359Z,18.70
2023-05-05T08:32:28.428Z,25.00
2023-05-05T08:33:26.322Z,21.10
2023-05-05T08:34:26.344Z,4.71
2023-05-05T08:35:26.342Z,0.00
2023-05-05T08:36:26.324Z,0.00
2023-05-05T08:37:27.282Z,0.00
2023-05-05T08:38:26.333Z,0.00
2023-05-05T08:39:27.430Z,0.00
2023-05-05T08:40:26.293Z,25.00
2023-05-05T08:41:26.390Z,30.95
2023-05-05T08:42:36.328Z,39.32
2023-05-05T08:43:30.557Z,39.37
2023-05-05T08:44:26.265Z,39.46
2023-05-05T08:45:26.308Z,34.32
2023-05-05T08:46:26.821Z,19.75
2023-05-05T08:47:26.314Z,6.10
2023-05-05T08:48:26.290Z,0.00
2023-05-05T08:49:26.237Z,22.55
2023-05-05T08:50:26.257Z,32.92
2023-05-05T08:51:26.343Z,31.09
2023-05-05T08:52:26.296Z,29.99
2023-05-05T08:53:26.222Z,32.68
2023-05-05T08:54:28.715Z,29.39
2023-05-05T08:55:26.599Z,28.37
2023-05-05T08:56:26.369Z,24.28
2023-05-05T08:57:26.446Z,30.22
2023-05-05T08:58:28.799Z,36.54
2023-05-05T08:59:26.694Z,29.24
2023-05-05T09:00:26.691Z,30.33
2023-05-05T09:01:26.729Z,40.37
2023-05-05T09:02:26.860Z,43.27
2023-05-05T09:03:26.849Z,39.77
2023-05-05T09:04:27.383Z,49.81
2023-05-05T09:05:26.896Z,48.44
2023-05-05T09:06:26.927Z,31.04
2023-05-05T09:07:27.777Z,30.26
2023-05-05T09:08:26.937Z,27.70
2023-05-05T09:09:26.989Z,29.74
2023-05-05T09:10:27.934Z,27.38
2023-05-05T09:11:27.156Z,25.30
2023-05-05T09:12:27.259Z,32.51
2023-05-05T09:13:27.236Z,27.44
2023-05-05T09:14:27.069Z,25.00
2023-05-05T09:15:27.124Z,34.81
2023-05-05T09:16:27.214Z,29.83
2023-05-05T09:17:28.818Z,47.59
2023-05-05T09:18:27.761Z,43.93
2023-05-05T09:19:27.780Z,27.17
2023-05-05T09:20:27.755Z,44.81
2023-05-05T09:21:27.851Z,49.17
2023-05-05T09:22:27.379Z,40.41
2023-05-05T09:23:27.799Z,39.72
2023-05-05T09:24:27.385Z,41.98
2023-05-05T09:25:27.408Z,38.29
2023-05-05T09:26:27.508Z,26.37
2023-05-05T09:27:27.832Z,35.53
2023-05-05T09:28:27.878Z,41.01
2023-05-05T09:29:27.523Z,27.60
2023-05-05T09:30:27.527Z,40.20
2023-05-05T09:31:27.651Z,54.88
2023-05-05T09:32:29.124Z,59.57
2023-05-05T09:33:27.589Z,59.84
2023-05-05T09:34:27.629Z,65.31
2023-05-05T09:35:27.634Z,82.90
2023-05-05T09:36:27.786Z,82.15
2023-05-05T09:37:27.583Z,87.26
2023-05-05T09:38:27.786Z,114.45
2023-05-05T09:39:27.604Z,121.43
2023-05-05T09:40:27.618Z,134.08
2023-05-05T09:41:27.579Z,144.06
2023-05-05T09:42:27.678Z,143.88
2023-05-05T09:43:27.631Z,152.55
2023-05-05T09:44:27.541Z,168.63
2023-05-05T09:45:27.643Z,177.59
2023-05-05T09:46:27.610Z,204.29
2023-05-05T09:47:29.899Z,230.50
2023-05-05T09:48:27.603Z,231.17
2023-05-05T09:49:27.563Z,235.08
2023-05-05T09:50:27.528Z,244.74
2023-05-05T09:51:27.467Z,268.23
2023-05-05T09:52:27.499Z,304.06
2023-05-05T09:53:27.868Z,249.86
2023-05-05T09:54:27.479Z,251.71
2023-05-05T09:55:27.452Z,250.00
2023-05-05T09:56:27.463Z,250.35
2023-05-05T09:57:27.478Z,250.00
2023-05-05T09:58:27.603Z,250.00
2023-05-05T09:59:27.628Z,246.17
2023-05-05T10:00:27.419Z,250.00
2023-05-05T10:01:27.476Z,200.75
2023-05-05T10:02:27.476Z,223.25
2023-05-05T10:03:28.741Z,230.34
2023-05-05T10:04:27.428Z,226.18
2023-05-05T10:05:27.506Z,227.43
2023-05-05T10:06:27.384Z,236.56
2023-05-05T10:07:27.471Z,236.15
2023-05-05T10:08:27.380Z,239.31
2023-05-05T10:09:27.394Z,243.15
2023-05-05T10:10:29.060Z,248.58
2023-05-05T10:11:27.366Z,250.52
2023-05-05T10:12:27.372Z,246.68
2023-05-05T10:13:28.303Z,248.63
2023-05-05T10:14:27.374Z,247.11
2023-05-05T10:15:27.380Z,235.03
2023-05-05T10:16:29.138Z,202.47
2023-05-05T10:17:27.393Z,229.39
2023-05-05T10:18:27.337Z,225.80
2023-05-05T10:19:27.366Z,224.87
2023-05-05T10:20:27.319Z,235.38
2023-05-05T10:21:27.336Z,240.54
2023-05-05T10:22:27.330Z,242.79
2023-05-05T10:23:27.278Z,246.03
2023-05-05T10:24:27.356Z,248.30
2023-05-05T10:25:27.396Z,229.91
2023-05-05T10:26:27.522Z,238.53
2023-05-05T10:27:27.458Z,239.44
2023-05-05T10:28:27.532Z,232.21
2023-05-05T10:29:27.531Z,225.11
2023-05-05T10:30:27.615Z,220.48
2023-05-05T10:31:27.884Z,202.03
2023-05-05T10:32:51.999Z,192.14
2023-05-05T10:33:32.226Z,192.15
2023-05-05T10:34:27.892Z,192.23
2023-05-05T10:35:27.692Z,194.01
2023-05-05T10:36:27.647Z,198.74
2023-05-05T10:37:27.780Z,209.31
2023-05-05T10:38:27.682Z,218.30
2023-05-05T10:39:27.702Z,226.66
2023-05-05T10:40:27.673Z,211.21
2023-05-05T10:41:27.899Z,215.90
2023-05-05T10:42:27.634Z,212.15
2023-05-05T10:43:27.692Z,218.29
2023-05-05T10:44:27.600Z,221.60
2023-05-05T10:45:27.739Z,221.93
2023-05-05T10:46:27.622Z,213.19
2023-05-05T10:47:27.857Z,211.72
2023-05-05T10:48:27.761Z,221.54
2023-05-05T10:49:27.677Z,230.48
2023-05-05T10:50:27.771Z,229.37
2023-05-05T10:51:39.540Z,211.53
2023-05-05T10:52:29.071Z,203.23
2023-05-05T10:53:27.822Z,203.25
2023-05-05T10:54:27.817Z,198.00
2023-05-05T10:55:27.812Z,209.12
2023-05-05T10:56:27.786Z,209.80
2023-05-05T10:57:27.784Z,210.04
2023-05-05T10:58:27.752Z,212.32
2023-05-05T10:59:27.737Z,208.88
2023-05-05T11:00:27.695Z,212.59
2023-05-05T11:01:27.835Z,216.29
2023-05-05T11:02:28.025Z,221.47
2023-05-05T11:03:27.982Z,206.67
2023-05-05T11:04:27.741Z,191.03
2023-05-05T11:05:27.684Z,190.49
2023-05-05T11:06:27.715Z,182.53
2023-05-05T11:07:27.811Z,197.87
2023-05-05T11:08:27.702Z,194.50
2023-05-05T11:09:27.697Z,194.34
2023-05-05T11:10:27.719Z,198.48
2023-05-05T11:11:28.226Z,202.92
2023-05-05T11:12:27.666Z,201.50
2023-05-05T11:13:27.648Z,210.01
2023-05-05T11:14:27.852Z,224.45
2023-05-05T11:15:27.687Z,235.65
2023-05-05T11:16:27.691Z,242.01
2023-05-05T11:17:27.617Z,236.03
2023-05-05T11:18:27.618Z,222.32
2023-05-05T11:19:27.870Z,232.77
2023-05-05T11:20:27.567Z,176.02
2023-05-05T11:21:27.893Z,144.68
2023-05-05T11:22:27.598Z,143.62
2023-05-05T11:23:27.606Z,109.89
2023-05-05T11:24:27.649Z,109.16
2023-05-05T11:25:27.580Z,99.58
2023-05-05T11:26:27.582Z,83.52
2023-05-05T11:27:27.566Z,77.29
2023-05-05T11:28:27.599Z,65.28
2023-05-05T11:29:27.543Z,78.49
2023-05-05T11:30:27.525Z,91.45
2023-05-05T11:31:27.556Z,91.64
2023-05-05T11:32:27.518Z,118.23
2023-05-05T11:33:27.518Z,142.57
2023-05-05T11:34:27.530Z,153.26
2023-05-05T11:35:27.493Z,163.86
2023-05-05T11:36:27.487Z,151.29
2023-05-05T11:37:27.494Z,157.67
2023-05-05T11:38:27.499Z,169.66
2023-05-05T11:39:27.448Z,193.32
2023-05-05T11:40:27.468Z,200.47
2023-05-05T11:41:27.440Z,209.25
2023-05-05T11:42:27.436Z,217.53
2023-05-05T11:43:27.413Z,214.90
2023-05-05T11:44:27.428Z,213.87
2023-05-05T11:45:27.442Z,223.47
2023-05-05T11:46:27.530Z,226.64
2023-05-05T11:47:27.445Z,231.24
2023-05-05T11:48:27.481Z,240.99
2023-05-05T11:49:27.412Z,247.33
2023-05-05T11:50:27.359Z,249.43
2023-05-05T11:51:27.592Z,250.36
2023-05-05T11:52:27.443Z,250.00
2023-05-05T11:53:27.446Z,250.00
2023-05-05T11:54:27.461Z,248.44
2023-05-05T11:55:27.519Z,248.12
2023-05-05T11:56:27.498Z,250.00
2023-05-05T11:57:27.515Z,248.80
2023-05-05T11:58:27.575Z,249.07
2023-05-05T11:59:27.585Z,250.00
2023-05-05T12:00:27.638Z,248.89
2023-05-05T12:01:27.694Z,249.53
2023-05-05T12:02:27.818Z,249.51
2023-05-05T12:03:27.883Z,249.35
2023-05-05T12:04:27.774Z,248.44
2023-05-05T12:05:28.289Z,248.99
2023-05-05T12:06:27.781Z,247.95
2023-05-05T12:07:27.867Z,249.77
2023-05-05T12:08:27.791Z,248.85
2023-05-05T12:09:27.878Z,249.23
2023-05-05T12:10:27.894Z,248.23
2023-05-05T12:11:27.889Z,246.55
2023-05-05T12:12:27.916Z,248.39
2023-05-05T12:13:27.954Z,248.46
2023-05-05T12:14:27.931Z,249.22
2023-05-05T12:15:27.965Z,248.99
2023-05-05T12:16:28.038Z,248.96
2023-05-05T12:17:28.037Z,250.00
2023-05-05T12:18:28.042Z,249.70
2023-05-05T12:19:28.045Z,249.73
2023-05-05T12:20:28.078Z,250.00
2023-05-05T12:21:28.099Z,249.79
2023-05-05T12:22:28.093Z,249.73
2023-05-05T12:23:28.163Z,248.65
2023-05-05T12:24:28.135Z,250.00
2023-05-05T12:25:28.136Z,248.47
2023-05-05T12:26:28.146Z,247.45
2023-05-05T12:27:28.185Z,249.78
2023-05-05T12:28:28.185Z,248.93
2023-05-05T12:29:28.217Z,248.87
2023-05-05T12:30:28.301Z,248.58
2023-05-05T12:31:28.219Z,247.71
2023-05-05T12:32:28.329Z,248.57
2023-05-05T12:33:28.225Z,248.11
2023-05-05T12:34:28.242Z,247.28
2023-05-05T12:35:28.254Z,248.05
2023-05-05T12:36:29.251Z,246.86
2023-05-05T12:37:28.254Z,245.77
2023-05-05T12:38:28.274Z,248.11
2023-05-05T12:39:28.253Z,247.34
2023-05-05T12:40:28.285Z,249.88
2023-05-05T12:41:28.292Z,247.71
2023-05-05T12:42:28.339Z,248.41
2023-05-05T12:43:28.336Z,246.98
2023-05-05T12:44:28.309Z,247.84